createdAt,value
2022-09-07T00:00:20.285Z,16.95
2022-09-07T00:01:20.228Z,16.93
2022-09-07T00:02:20.240Z,16.92
2022-09-07T00:03:20.383Z,16.89
2022-09-07T00:04:20.312Z,16.90
2022-09-07T00:05:20.189Z,16.92
2022-09-07T00:06:20.176Z,16.90
2022-09-07T00:07:20.206Z,16.90
2022-09-07T00:08:20.151Z,16.88
2022-09-07T00:09:20.191Z,16.86
2022-09-07T00:10:20.144Z,16.86
2022-09-07T00:11:20.158Z,16.85
2022-09-07T00:12:20.161Z,16.86
2022-09-07T00:13:20.098Z,16.86
2022-09-07T00:14:20.097Z,16.85
2022-09-07T00:15:20.087Z,16.83
2022-09-07T00:16:20.271Z,16.85
2022-09-07T00:17:20.077Z,16.83
2022-09-07T00:18:20.058Z,16.85
2022-09-07T00:19:20.032Z,16.85
2022-09-07T00:20:20.029Z,16.86
2022-09-07T00:21:20.013Z,16.86
2022-09-07T00:22:20.013Z,16.86
2022-09-07T00:23:19.995Z,16.86
2022-09-07T00:24:20.052Z,16.85
2022-09-07T00:25:19.999Z,16.83
2022-09-07T00:26:19.951Z,16.81
2022-09-07T00:27:20.002Z,16.81
2022-09-07T00:28:19.956Z,16.81
2022-09-07T00:29:19.912Z,16.80
2022-09-07T00:30:19.930Z,16.78
2022-09-07T00:31:19.927Z,16.80
2022-09-07T00:32:19.905Z,16.81
2022-09-07T00:33:19.885Z,16.81
2022-09-07T00:34:19.891Z,16.81
2022-09-07T00:35:19.846Z,16.83
2022-09-07T00:36:19.898Z,16.81
2022-09-07T00:37:19.858Z,16.80
2022-09-07T00:38:19.870Z,16.78
2022-09-07T00:39:19.807Z,16.74
2022-09-07T00:40:19.819Z,16.74
2022-09-07T00:41:19.805Z,16.73
2022-09-07T00:42:19.825Z,16.71
2022-09-07T00:43:19.778Z,16.70
2022-09-07T00:44:19.755Z,16.70
2022-09-07T00:45:19.771Z,16.65
2022-09-07T00:46:19.872Z,16.63
2022-09-07T00:47:19.806Z,16.63
2022-09-07T00:48:19.721Z,16.62
2022-09-07T00:49:19.701Z,16.63
2022-09-07T00:50:19.716Z,16.63
2022-09-07T00:51:19.690Z,16.71
2022-09-07T00:52:19.725Z,16.75
2022-09-07T00:53:19.647Z,16.78
2022-09-07T00:54:19.658Z,16.77
2022-09-07T00:55:19.652Z,16.77
2022-09-07T00:56:19.637Z,16.75
2022-09-07T00:57:19.637Z,16.74
2022-09-07T00:58:19.607Z,16.71
2022-09-07T00:59:19.592Z,16.68
2022-09-07T01:00:19.588Z,16.68
2022-09-07T01:01:19.804Z,16.67
2022-09-07T01:02:19.716Z,16.65
2022-09-07T01:03:19.536Z,16.67
2022-09-07T01:04:19.565Z,16.65
2022-09-07T01:05:19.528Z,16.63
2022-09-07T01:06:19.517Z,16.62
2022-09-07T01:07:19.562Z,16.62
2022-09-07T01:08:19.504Z,16.62
2022-09-07T01:09:19.475Z,16.63
2022-09-07T01:10:19.531Z,16.65
2022-09-07T01:11:19.467Z,16.67
2022-09-07T01:12:19.518Z,16.63
2022-09-07T01:13:19.483Z,16.65
2022-09-07T01:14:19.438Z,16.65
2022-09-07T01:15:19.442Z,16.65
2022-09-07T01:16:19.437Z,16.67
2022-09-07T01:17:19.404Z,16.67
2022-09-07T01:18:19.391Z,16.67
2022-09-07T01:19:19.389Z,16.63
2022-09-07T01:20:19.380Z,16.63
2022-09-07T01:21:19.351Z,16.63
2022-09-07T01:22:19.392Z,16.63
2022-09-07T01:23:19.326Z,16.63
2022-09-07T01:24:19.356Z,16.63
2022-09-07T01:25:19.305Z,16.67
2022-09-07T01:26:19.313Z,16.67
2022-09-07T01:27:19.346Z,16.67
2022-09-07T01:28:19.272Z,16.67
2022-09-07T01:29:19.277Z,16.73
2022-09-07T01:30:19.308Z,16.74
2022-09-07T01:31:19.306Z,16.78
2022-09-07T01:32:19.265Z,16.80
2022-09-07T01:33:19.238Z,16.78
2022-09-07T01:34:19.243Z,16.78
2022-09-07T01:35:18.187Z,16.77
2022-09-07T01:36:19.207Z,16.78
2022-09-07T01:37:19.190Z,16.78
2022-09-07T01:38:19.164Z,16.81
2022-09-07T01:39:19.154Z,16.85
2022-09-07T01:40:19.147Z,16.83
2022-09-07T01:41:19.148Z,16.85
2022-09-07T01:42:19.141Z,16.81
2022-09-07T01:43:19.149Z,16.83
2022-09-07T01:44:19.099Z,16.85
2022-09-07T01:45:19.118Z,16.85
2022-09-07T01:46:19.170Z,16.81
2022-09-07T01:47:19.109Z,16.78
2022-09-07T01:48:19.068Z,16.77
2022-09-07T01:49:19.058Z,16.74
2022-09-07T01:50:19.055Z,16.73
2022-09-07T01:51:19.021Z,16.75
2022-09-07T01:52:19.027Z,16.74
2022-09-07T01:53:19.586Z,16.73
2022-09-07T01:54:19.039Z,16.75
2022-09-07T01:55:18.977Z,16.74
2022-09-07T01:56:18.993Z,16.74
2022-09-07T01:57:18.978Z,16.77
2022-09-07T01:58:18.948Z,16.75
2022-09-07T01:59:18.923Z,16.74
2022-09-07T02:00:18.963Z,16.74
2022-09-07T02:01:18.957Z,16.73
2022-09-07T02:02:18.958Z,16.71
2022-09-07T02:03:18.878Z,16.71
2022-09-07T02:04:18.874Z,16.68
2022-09-07T02:05:18.882Z,16.65
2022-09-07T02:06:18.861Z,16.63
2022-09-07T02:07:18.853Z,16.60
2022-09-07T02:08:18.845Z,16.59
2022-09-07T02:09:18.842Z,16.59
2022-09-07T02:10:18.824Z,16.62
2022-09-07T02:11:18.797Z,16.62
2022-09-07T02:12:18.824Z,16.63
2022-09-07T02:13:18.781Z,16.63
2022-09-07T02:14:18.764Z,16.62
2022-09-07T02:15:18.786Z,16.60
2022-09-07T02:16:18.859Z,16.60
2022-09-07T02:17:18.757Z,16.58
2022-09-07T02:18:18.755Z,16.56
2022-09-07T02:19:18.738Z,16.55
2022-09-07T02:20:18.747Z,16.56
2022-09-07T02:21:18.744Z,16.56
2022-09-07T02:22:18.715Z,16.55
2022-09-07T02:23:18.719Z,16.56
2022-09-07T02:24:18.663Z,16.56
2022-09-07T02:25:18.681Z,16.58
2022-09-07T02:26:18.721Z,16.58
2022-09-07T02:27:18.633Z,16.55
2022-09-07T02:28:18.622Z,16.53
2022-09-07T02:29:18.625Z,16.52
2022-09-07T02:30:18.644Z,16.52
2022-09-07T02:31:18.703Z,16.52
2022-09-07T02:32:18.570Z,16.50
2022-09-07T02:33:18.578Z,16.49
2022-09-07T02:34:18.558Z,16.49
2022-09-07T02:35:18.552Z,16.45
2022-09-07T02:36:18.537Z,16.45
2022-09-07T02:37:18.518Z,16.44
2022-09-07T02:38:18.540Z,16.44
2022-09-07T02:39:18.494Z,16.42
2022-09-07T02:40:18.506Z,16.42
2022-09-07T02:41:18.492Z,16.42
2022-09-07T02:42:18.503Z,16.44
2022-09-07T02:43:18.480Z,16.42
2022-09-07T02:44:18.468Z,16.41
2022-09-07T02:45:18.448Z,16.38
2022-09-07T02:46:18.496Z,16.38
2022-09-07T02:47:18.413Z,16.37
2022-09-07T02:48:18.425Z,16.37
2022-09-07T02:49:18.398Z,16.34
2022-09-07T02:50:18.405Z,16.34
2022-09-07T02:51:18.378Z,16.34
2022-09-07T02:52:18.423Z,16.31
2022-09-07T02:53:18.380Z,16.31
2022-09-07T02:54:18.358Z,16.30
2022-09-07T02:55:18.332Z,16.27
2022-09-07T02:56:18.357Z,16.26
2022-09-07T02:57:18.322Z,16.25
2022-09-07T02:58:18.337Z,16.23
2022-09-07T02:59:18.294Z,16.23
2022-09-07T03:00:18.305Z,16.23
2022-09-07T03:01:18.290Z,16.23
2022-09-07T03:02:18.291Z,16.23
2022-09-07T03:03:18.255Z,16.23
2022-09-07T03:04:18.244Z,16.22
2022-09-07T03:05:18.217Z,16.20
2022-09-07T03:06:18.260Z,16.20
2022-09-07T03:07:18.201Z,16.22
2022-09-07T03:08:18.220Z,16.20
2022-09-07T03:09:18.173Z,16.18
2022-09-07T03:10:18.163Z,16.18
2022-09-07T03:11:18.183Z,16.20
2022-09-07T03:12:18.194Z,16.18
2022-09-07T03:13:18.146Z,16.18
2022-09-07T03:14:18.149Z,16.15
2022-09-07T03:15:18.148Z,16.14
2022-09-07T03:16:18.234Z,16.14
2022-09-07T03:17:18.126Z,16.11
2022-09-07T03:18:18.094Z,16.11
2022-09-07T03:19:18.066Z,16.12
2022-09-07T03:20:18.077Z,16.09
2022-09-07T03:21:18.049Z,16.11
2022-09-07T03:22:18.050Z,16.07
2022-09-07T03:23:18.069Z,16.04
2022-09-07T03:24:18.042Z,16.04
2022-09-07T03:25:18.050Z,16.03
2022-09-07T03:26:17.998Z,16.04
2022-09-07T03:27:17.982Z,16.04
2022-09-07T03:28:18.014Z,16.03
2022-09-07T03:29:17.972Z,16.03
2022-09-07T03:30:17.951Z,16.03
2022-09-07T03:31:17.978Z,16.06
2022-09-07T03:32:18.006Z,16.06
2022-09-07T03:33:17.956Z,16.07
2022-09-07T03:34:17.916Z,16.06
2022-09-07T03:35:17.918Z,16.06
2022-09-07T03:36:17.985Z,16.09
2022-09-07T03:37:17.921Z,16.09
2022-09-07T03:38:17.883Z,16.09
2022-09-07T03:39:17.879Z,16.09
2022-09-07T03:40:17.845Z,16.06
2022-09-07T03:41:17.835Z,16.06
2022-09-07T03:42:17.854Z,16.04
2022-09-07T03:43:17.861Z,16.04
2022-09-07T03:44:17.827Z,16.01
2022-09-07T03:45:17.782Z,16.00
2022-09-07T03:46:17.831Z,16.00
2022-09-07T03:47:17.761Z,15.97
2022-09-07T03:48:17.806Z,15.99
2022-09-07T03:49:17.748Z,15.99
2022-09-07T03:50:17.818Z,15.99
2022-09-07T03:51:17.724Z,15.99
2022-09-07T03:52:17.726Z,15.99
2022-09-07T03:53:17.729Z,15.99
2022-09-07T03:54:17.705Z,16.00
2022-09-07T03:55:17.680Z,16.01
2022-09-07T03:56:17.681Z,16.03
2022-09-07T03:57:17.660Z,16.04
2022-09-07T03:58:17.691Z,16.04
2022-09-07T03:59:17.652Z,16.04
2022-09-07T04:00:17.665Z,16.06
2022-09-07T04:01:17.646Z,16.04
2022-09-07T04:02:17.749Z,16.04
2022-09-07T04:03:17.612Z,16.04
2022-09-07T04:04:17.591Z,16.04
2022-09-07T04:05:17.575Z,16.06
2022-09-07T04:06:17.563Z,16.06
2022-09-07T04:07:17.539Z,16.06
2022-09-07T04:08:17.573Z,16.07
2022-09-07T04:09:17.573Z,16.06
2022-09-07T04:10:17.533Z,16.06
2022-09-07T04:11:17.515Z,16.07
2022-09-07T04:12:17.509Z,16.06
2022-09-07T04:13:17.536Z,16.07
2022-09-07T04:14:17.502Z,16.07
2022-09-07T04:15:17.474Z,16.07
2022-09-07T04:16:17.549Z,16.06
2022-09-07T04:17:17.476Z,16.04
2022-09-07T04:18:17.470Z,16.03
2022-09-07T04:19:17.409Z,16.01
2022-09-07T04:20:17.455Z,16.00
2022-09-07T04:21:17.407Z,16.00
2022-09-07T04:22:17.406Z,15.99
2022-09-07T04:23:17.398Z,15.97
2022-09-07T04:24:17.404Z,15.99
2022-09-07T04:25:17.366Z,15.97
2022-09-07T04:26:17.359Z,15.96
2022-09-07T04:27:17.342Z,15.96
2022-09-07T04:28:17.362Z,15.96
2022-09-07T04:29:17.328Z,15.93
2022-09-07T04:30:17.306Z,15.94
2022-09-07T04:31:17.335Z,15.93
2022-09-07T04:32:17.289Z,15.92
2022-09-07T04:33:17.336Z,15.93
2022-09-07T04:34:17.319Z,15.94
2022-09-07T04:35:17.255Z,15.94
2022-09-07T04:36:17.256Z,15.93
2022-09-07T04:37:17.227Z,15.94
2022-09-07T04:38:17.245Z,15.94
2022-09-07T04:39:17.203Z,15.96
2022-09-07T04:40:17.257Z,15.99
2022-09-07T04:41:17.201Z,15.97
2022-09-07T04:42:17.179Z,15.97
2022-09-07T04:43:17.251Z,15.99
2022-09-07T04:44:17.351Z,15.99
2022-09-07T04:45:17.148Z,16.03
2022-09-07T04:46:17.294Z,16.01
2022-09-07T04:47:17.116Z,16.04
2022-09-07T04:49:16.495Z,16.06
2022-09-07T04:50:17.490Z,16.07
2022-09-07T04:51:17.467Z,16.07
2022-09-07T04:52:17.465Z,16.09
2022-09-07T04:53:17.472Z,16.09
2022-09-07T04:54:17.434Z,16.07
2022-09-07T04:55:17.427Z,16.11
2022-09-07T04:56:17.430Z,16.11
2022-09-07T04:57:17.412Z,16.15
2022-09-07T04:58:17.454Z,16.16
2022-09-07T04:59:17.393Z,16.18
2022-09-07T05:00:17.378Z,16.20
2022-09-07T05:01:17.429Z,16.23
2022-09-07T05:02:17.391Z,16.25
2022-09-07T05:03:17.355Z,16.27
2022-09-07T05:04:17.330Z,16.31
2022-09-07T05:05:17.330Z,16.33
2022-09-07T05:06:17.318Z,16.34
2022-09-07T05:07:17.297Z,16.33
2022-09-07T05:08:17.335Z,16.34
2022-09-07T05:09:17.272Z,16.37
2022-09-07T05:10:17.279Z,16.37
2022-09-07T05:11:17.252Z,16.38
2022-09-07T05:12:17.247Z,16.38
2022-09-07T05:13:17.252Z,16.40
2022-09-07T05:14:17.229Z,16.42
2022-09-07T05:15:17.208Z,16.41
2022-09-07T05:16:17.239Z,16.42
2022-09-07T05:17:17.194Z,16.41
2022-09-07T05:18:17.207Z,16.42
2022-09-07T05:19:17.169Z,16.44
2022-09-07T05:20:20.143Z,16.44
2022-09-07T05:21:17.145Z,16.44
2022-09-07T05:22:17.136Z,16.45
2022-09-07T05:23:17.133Z,16.45
2022-09-07T05:24:17.108Z,16.44
2022-09-07T05:25:17.097Z,16.44
2022-09-07T05:26:17.093Z,16.45
2022-09-07T05:27:17.078Z,16.45
2022-09-07T05:28:19.439Z,16.45
2022-09-07T05:31:17.328Z,16.45
2022-09-07T05:32:17.040Z,16.49
2022-09-07T05:33:17.019Z,16.49
2022-09-07T05:34:32.733Z,16.48
2022-09-07T05:35:16.995Z,16.48
2022-09-07T05:36:16.986Z,16.48
2022-09-07T05:37:16.970Z,16.48
2022-09-07T05:38:16.961Z,16.48
2022-09-07T05:39:16.958Z,16.49
2022-09-07T05:40:16.961Z,16.50
2022-09-07T05:41:16.937Z,16.50
2022-09-07T05:42:16.918Z,16.50
2022-09-07T05:43:16.909Z,16.50
2022-09-07T05:45:16.908Z,16.52
2022-09-07T05:46:16.992Z,16.52
2022-09-07T05:47:16.890Z,16.53
2022-09-07T05:48:16.864Z,16.53
2022-09-07T05:49:16.860Z,16.55
2022-09-07T05:50:16.821Z,16.55
2022-09-07T05:51:16.816Z,16.53
2022-09-07T05:52:16.804Z,16.53
2022-09-07T05:53:16.791Z,16.53
2022-09-07T05:54:16.802Z,16.55
2022-09-07T05:55:29.284Z,16.53
2022-09-07T05:56:16.777Z,16.55
2022-09-07T05:57:16.741Z,16.56
2022-09-07T05:58:16.737Z,16.55
2022-09-07T05:59:16.732Z,16.55
2022-09-07T06:00:16.723Z,16.55
2022-09-07T06:01:16.723Z,16.53
2022-09-07T06:02:16.879Z,16.53
2022-09-07T06:03:16.764Z,16.53
2022-09-07T06:04:16.695Z,16.53
2022-09-07T06:05:16.665Z,16.52
2022-09-07T06:06:16.661Z,16.52
2022-09-07T06:07:23.885Z,16.49
2022-09-07T06:08:16.633Z,16.49
2022-09-07T06:09:16.637Z,16.45
2022-09-07T06:11:16.598Z,16.41
2022-09-07T06:12:16.587Z,16.40
2022-09-07T06:13:16.577Z,16.40
2022-09-07T06:14:16.590Z,16.37
2022-09-07T06:15:16.562Z,16.35
2022-09-07T06:16:16.610Z,16.34
2022-09-07T06:17:16.537Z,16.34
2022-09-07T06:18:16.537Z,16.33
2022-09-07T06:19:16.525Z,16.33
2022-09-07T06:20:16.500Z,16.27
2022-09-07T06:21:16.494Z,16.26
2022-09-07T06:22:16.497Z,16.25
2022-09-07T06:23:16.474Z,16.23
2022-09-07T06:24:16.467Z,16.22
2022-09-07T06:25:16.455Z,16.20
2022-09-07T06:26:16.462Z,16.18
2022-09-07T06:27:16.434Z,16.16
2022-09-07T06:28:16.430Z,16.14
2022-09-07T06:29:16.410Z,16.09
2022-09-07T06:30:16.396Z,16.06
2022-09-07T06:31:16.441Z,16.03
2022-09-07T06:33:19.571Z,16.00
2022-09-07T06:34:16.378Z,16.00
2022-09-07T06:35:16.348Z,16.00
2022-09-07T06:36:16.329Z,15.99
2022-09-07T06:37:16.317Z,16.00
2022-09-07T06:38:16.317Z,15.99
2022-09-07T06:39:16.311Z,16.00
2022-09-07T06:40:16.356Z,15.99
2022-09-07T06:42:16.271Z,15.97
2022-09-07T06:43:16.253Z,15.96
2022-09-07T06:44:16.251Z,15.99
2022-09-07T06:45:16.248Z,15.99
2022-09-07T06:47:16.207Z,15.93
2022-09-07T06:48:16.197Z,15.93
2022-09-07T06:49:16.188Z,15.92
2022-09-07T06:50:16.197Z,15.94
2022-09-07T06:51:16.188Z,15.96
2022-09-07T06:52:16.167Z,15.96
2022-09-07T06:55:16.149Z,15.99
2022-09-07T06:56:16.119Z,15.97
2022-09-07T06:57:16.104Z,15.97
2022-09-07T06:58:16.101Z,15.99
2022-09-07T06:59:16.078Z,15.97
2022-09-07T07:00:16.071Z,15.97
2022-09-07T07:01:16.236Z,16.00
2022-09-07T07:02:16.054Z,16.00
2022-09-07T07:03:16.092Z,16.01
2022-09-07T07:04:16.033Z,16.06
2022-09-07T07:05:16.031Z,16.04
2022-09-07T07:06:16.018Z,16.09
2022-09-07T07:07:16.012Z,16.12
2022-09-07T07:08:15.988Z,16.14
2022-09-07T07:09:15.972Z,16.14
2022-09-07T07:10:17.856Z,16.15
2022-09-07T07:11:15.955Z,16.16
2022-09-07T07:13:49.933Z,16.20
2022-09-07T07:14:50.903Z,16.20
2022-09-07T07:15:50.906Z,16.18
2022-09-07T07:16:50.906Z,16.18
2022-09-07T07:17:58.160Z,16.20
2022-09-07T07:18:50.876Z,16.20
2022-09-07T07:19:50.865Z,16.18
2022-09-07T07:20:50.852Z,16.20
2022-09-07T07:22:50.827Z,16.22
2022-09-07T07:23:50.871Z,16.23
2022-09-07T07:24:50.798Z,16.23
2022-09-07T07:25:50.798Z,16.25
2022-09-07T07:26:50.780Z,16.26
2022-09-07T07:27:50.917Z,16.30
2022-09-07T07:29:06.085Z,16.27
2022-09-07T07:29:50.771Z,16.27
2022-09-07T07:30:50.738Z,16.30
2022-09-07T07:31:50.733Z,16.31
2022-09-07T07:32:50.715Z,16.33
2022-09-07T07:33:50.753Z,16.33
2022-09-07T07:34:50.738Z,16.34
2022-09-07T07:35:50.685Z,16.34
2022-09-07T07:36:50.668Z,16.34
2022-09-07T07:37:50.793Z,16.31
2022-09-07T07:41:57.406Z,16.15
2022-09-07T07:42:50.621Z,16.16
2022-09-07T07:43:50.598Z,16.18
2022-09-07T07:45:56.677Z,16.16
2022-09-07T07:46:50.760Z,16.20
2022-09-07T07:47:50.553Z,16.20
2022-09-07T07:48:50.536Z,16.20
2022-09-07T07:50:30.463Z,16.18
2022-09-07T07:50:50.525Z,16.16
2022-09-07T07:53:39.474Z,16.11
2022-09-07T07:53:50.489Z,16.07
2022-09-07T07:54:50.487Z,16.06
2022-09-07T07:55:50.560Z,16.03
2022-09-07T07:56:50.457Z,15.97
2022-09-07T07:57:50.469Z,15.93
2022-09-07T07:58:50.429Z,15.88
2022-09-07T07:59:50.425Z,15.88
2022-09-07T08:00:54.819Z,15.88
2022-09-07T08:01:50.551Z,15.88
2022-09-07T08:02:50.451Z,15.89
2022-09-07T08:03:50.380Z,15.89
2022-09-07T08:04:50.368Z,15.82
2022-09-07T08:05:50.376Z,15.81
2022-09-07T08:06:50.351Z,15.81
2022-09-07T08:07:50.335Z,15.88
2022-09-07T08:08:50.430Z,15.93
2022-09-07T08:09:50.313Z,15.96
2022-09-07T08:10:50.301Z,16.01
2022-09-07T08:11:50.298Z,16.07
2022-09-07T08:12:50.278Z,16.11
2022-09-07T08:13:50.273Z,16.12
2022-09-07T08:14:50.270Z,16.16
2022-09-07T08:15:50.330Z,16.22
2022-09-07T08:16:50.233Z,16.23
2022-09-07T08:17:50.227Z,16.23
2022-09-07T08:18:50.219Z,16.26
2022-09-07T08:19:50.221Z,16.25
2022-09-07T08:20:50.232Z,16.23
2022-09-07T08:21:50.187Z,16.22
2022-09-07T08:22:50.186Z,16.20
2022-09-07T08:23:50.165Z,16.16
2022-09-07T08:24:50.151Z,16.15
2022-09-07T08:25:50.132Z,16.12
2022-09-07T08:26:50.184Z,16.11
2022-09-07T08:27:50.108Z,16.12
2022-09-07T08:28:50.100Z,16.14
2022-09-07T08:29:50.096Z,16.16
2022-09-07T08:30:50.079Z,16.20
2022-09-07T08:31:50.275Z,16.22
2022-09-07T08:32:50.070Z,16.22
2022-09-07T08:33:50.054Z,16.25
2022-09-07T08:34:50.064Z,16.30
2022-09-07T08:35:50.030Z,16.31
2022-09-07T08:36:50.012Z,16.31
2022-09-07T08:37:50.023Z,16.25
2022-09-07T08:38:49.995Z,16.22
2022-09-07T08:39:50.059Z,16.20
2022-09-07T08:40:49.963Z,16.22
2022-09-07T08:41:49.969Z,16.22
2022-09-07T08:42:49.951Z,16.25
2022-09-07T08:43:49.951Z,16.25
2022-09-07T08:44:49.922Z,16.22
2022-09-07T08:45:49.927Z,16.22
2022-09-07T08:46:50.050Z,16.23
2022-09-07T08:47:49.893Z,16.22
2022-09-07T08:48:49.884Z,16.23
2022-09-07T08:49:49.890Z,16.22
2022-09-07T08:50:49.878Z,16.16
2022-09-07T08:51:49.861Z,16.14
2022-09-07T08:52:49.849Z,16.15
2022-09-07T08:53:49.828Z,16.16
2022-09-07T08:54:49.807Z,16.20
2022-09-07T08:55:49.818Z,16.22
2022-09-07T08:57:50.123Z,16.23
2022-09-07T08:58:50.454Z,16.25
2022-09-07T08:59:49.771Z,16.30
2022-09-07T09:00:50.261Z,16.34
2022-09-07T09:03:28.736Z,16.49
2022-09-07T09:05:49.865Z,16.74
2022-09-07T09:06:49.813Z,16.83
2022-09-07T09:07:49.662Z,16.90
2022-09-07T09:08:49.679Z,16.99
2022-09-07T09:09:49.705Z,17.10
2022-09-07T09:10:49.639Z,17.13
2022-09-07T09:11:49.629Z,17.15
2022-09-07T09:12:49.636Z,17.23
2022-09-07T09:13:49.604Z,17.25
2022-09-07T09:14:49.598Z,17.30
2022-09-07T09:15:49.632Z,17.38
2022-09-07T09:16:49.571Z,17.46
2022-09-07T09:17:49.592Z,17.53
2022-09-07T09:18:49.549Z,17.62
2022-09-07T09:19:49.545Z,17.66
2022-09-07T09:20:49.538Z,17.70
2022-09-07T09:21:49.519Z,17.73
2022-09-07T09:22:49.506Z,17.79
2022-09-07T09:23:49.516Z,17.85
2022-09-07T09:24:49.492Z,17.88
2022-09-07T09:25:49.485Z,17.88
2022-09-07T09:27:49.453Z,17.79
2022-09-07T09:28:49.462Z,17.84
2022-09-07T09:29:49.438Z,17.85
2022-09-07T09:30:49.459Z,17.82
2022-09-07T09:31:49.425Z,17.84
2022-09-07T09:32:49.405Z,17.85
2022-09-07T09:33:49.402Z,17.91
2022-09-07T09:34:49.373Z,17.95
2022-09-07T09:35:49.360Z,17.92
2022-09-07T09:36:49.357Z,17.95
2022-09-07T09:37:49.346Z,17.97
2022-09-07T09:38:49.344Z,18.04
2022-09-07T09:39:51.022Z,18.12
2022-09-07T09:40:49.316Z,18.25
2022-09-07T09:41:49.303Z,18.31
2022-09-07T09:42:49.291Z,18.34
2022-09-07T09:43:49.302Z,18.44
2022-09-07T09:44:49.267Z,18.57
2022-09-07T09:46:48.557Z,18.77
2022-09-07T09:47:49.269Z,18.87
2022-09-07T09:48:49.218Z,18.90
2022-09-07T09:49:49.235Z,18.91
2022-09-07T09:52:51.792Z,19.08
2022-09-07T09:53:49.177Z,19.13
2022-09-07T09:54:49.168Z,19.17
2022-09-07T09:55:49.161Z,19.18
2022-09-07T09:56:49.139Z,19.24
2022-09-07T09:59:05.100Z,19.20
2022-09-07T09:59:57.680Z,19.05
2022-09-07T10:03:57.504Z,19.08
2022-09-07T10:04:49.049Z,19.13
2022-09-07T10:05:49.047Z,19.17
2022-09-07T10:06:49.020Z,19.23
2022-09-07T10:07:49.014Z,19.31
2022-09-07T10:08:48.997Z,19.33
2022-09-07T10:09:48.993Z,19.39
2022-09-07T10:10:48.986Z,19.51
2022-09-07T10:12:48.967Z,19.55
2022-09-07T10:13:48.948Z,19.65
2022-09-07T10:14:48.930Z,19.73
2022-09-07T10:15:48.932Z,19.68
2022-09-07T10:16:48.918Z,19.70
2022-09-07T10:17:48.922Z,19.75
2022-09-07T10:18:48.891Z,19.83
2022-09-07T10:19:48.887Z,19.88
2022-09-07T10:20:48.866Z,19.97
2022-09-07T10:21:48.862Z,20.06
2022-09-07T10:22:51.523Z,20.12
2022-09-07T10:23:48.858Z,20.21
2022-09-07T10:24:48.837Z,20.30
2022-09-07T10:25:48.811Z,20.38
2022-09-07T10:26:48.802Z,20.43
2022-09-07T10:27:48.795Z,20.46
2022-09-07T10:29:48.830Z,20.50
2022-09-07T10:30:48.843Z,20.49
2022-09-07T10:31:48.750Z,20.50
2022-09-07T10:32:48.739Z,20.53
2022-09-07T10:34:48.727Z,20.56
2022-09-07T10:35:48.732Z,20.58
2022-09-07T10:36:48.686Z,20.56
2022-09-07T10:37:48.689Z,20.58
2022-09-07T10:38:48.679Z,20.62
2022-09-07T10:39:48.695Z,20.61
2022-09-07T10:40:48.652Z,20.65
2022-09-07T10:41:48.661Z,20.72
2022-09-07T10:43:48.634Z,20.79
2022-09-07T10:44:48.616Z,20.83
2022-09-07T10:45:48.601Z,20.87
2022-09-07T10:47:03.987Z,20.93
2022-09-07T10:47:48.602Z,20.95
2022-09-07T10:48:55.129Z,20.93
2022-09-07T10:50:48.550Z,21.11
2022-09-07T10:51:48.541Z,21.14
2022-09-07T10:52:48.535Z,21.09
2022-09-07T10:54:29.977Z,21.09
2022-09-07T10:54:48.535Z,21.14
2022-09-07T10:55:48.491Z,21.26
2022-09-07T10:56:48.478Z,21.39
2022-09-07T10:57:49.372Z,21.44
2022-09-07T10:59:04.361Z,21.48
2022-09-07T11:00:48.445Z,21.61
2022-09-07T11:01:48.471Z,21.60
2022-09-07T11:03:48.433Z,21.69
2022-09-07T11:04:48.400Z,21.76
2022-09-07T11:05:48.440Z,21.83
2022-09-07T11:06:48.377Z,21.83
2022-09-07T11:07:48.365Z,21.91
2022-09-07T11:09:48.348Z,22.06
2022-09-07T11:10:48.327Z,22.13
2022-09-07T11:12:04.440Z,22.19
2022-09-07T11:12:48.327Z,22.14
2022-09-07T11:14:11.448Z,22.16
2022-09-07T11:14:48.295Z,22.07
2022-09-07T11:15:48.309Z,22.04
2022-09-07T11:16:51.738Z,21.97
2022-09-07T11:17:52.565Z,21.92
2022-09-07T11:18:48.243Z,21.92
2022-09-07T11:19:48.233Z,21.92
2022-09-07T11:20:48.230Z,21.99
2022-09-07T11:22:03.608Z,22.02
2022-09-07T11:22:48.202Z,22.10
2022-09-07T11:23:48.212Z,22.22
2022-09-07T11:25:28.808Z,22.35
2022-09-07T11:25:48.275Z,22.28
2022-09-07T11:26:48.160Z,22.31
2022-09-07T11:27:48.152Z,22.37
2022-09-07T11:29:28.742Z,22.44
2022-09-07T11:29:48.166Z,22.50
2022-09-07T11:30:48.229Z,22.52
2022-09-07T11:31:48.115Z,22.41
2022-09-07T11:32:48.092Z,22.38
2022-09-07T11:34:23.839Z,22.38
2022-09-07T11:34:48.074Z,22.31
2022-09-07T11:35:48.123Z,22.25
2022-09-07T11:36:48.040Z,22.29
2022-09-07T11:37:48.044Z,22.31
2022-09-07T11:38:48.027Z,22.29
2022-09-07T11:39:48.093Z,22.34
2022-09-07T11:40:48.019Z,22.43
2022-09-07T11:41:48.027Z,22.50
2022-09-07T11:42:47.991Z,22.56
2022-09-07T11:43:47.973Z,22.59
2022-09-07T11:44:47.963Z,22.59
2022-09-07T11:45:47.990Z,22.62
2022-09-07T11:46:47.948Z,22.65
2022-09-07T11:47:47.962Z,22.65
2022-09-07T11:48:47.938Z,22.69
2022-09-07T11:49:52.590Z,22.72
2022-09-07T11:50:47.905Z,22.72
2022-09-07T11:51:53.624Z,22.62
2022-09-07T11:52:53.537Z,22.57
2022-09-07T11:53:47.893Z,22.64
2022-09-07T11:54:47.851Z,22.69
2022-09-07T11:55:47.852Z,22.74
2022-09-07T11:56:47.833Z,22.77
2022-09-07T11:57:50.460Z,22.72
2022-09-07T11:58:47.811Z,22.69
2022-09-07T11:59:47.819Z,22.59
2022-09-07T12:00:47.792Z,22.56
2022-09-07T12:01:47.786Z,22.59
2022-09-07T12:02:59.347Z,22.68
2022-09-07T12:03:47.975Z,22.77
2022-09-07T12:04:47.801Z,22.80
2022-09-07T12:05:47.761Z,22.89
2022-09-07T12:06:47.897Z,22.90
2022-09-07T12:07:47.726Z,22.87
2022-09-07T12:08:47.711Z,22.92
2022-09-07T12:09:47.689Z,23.01
2022-09-07T12:10:47.690Z,23.05
2022-09-07T12:11:47.695Z,23.07
2022-09-07T12:12:47.672Z,23.07
2022-09-07T12:13:47.666Z,23.11
2022-09-07T12:14:47.650Z,23.02
2022-09-07T12:15:47.718Z,23.01
2022-09-07T12:16:47.620Z,23.05
2022-09-07T12:17:47.622Z,23.05
2022-09-07T12:18:47.597Z,23.11
2022-09-07T12:19:47.591Z,23.20
2022-09-07T12:20:47.610Z,23.24
2022-09-07T12:21:47.566Z,23.22
2022-09-07T12:22:47.553Z,23.23
2022-09-07T12:23:47.576Z,23.31
2022-09-07T12:24:47.538Z,23.38
2022-09-07T12:25:47.521Z,23.32
2022-09-07T12:26:47.532Z,23.31
2022-09-07T12:27:47.504Z,23.31
2022-09-07T12:28:47.490Z,23.24
2022-09-07T12:29:47.504Z,23.27
2022-09-07T12:30:47.496Z,23.29
2022-09-07T12:31:57.789Z,23.35
2022-09-07T12:32:56.060Z,23.43
2022-09-07T12:33:47.456Z,23.50
2022-09-07T12:34:47.449Z,23.60
2022-09-07T12:35:47.441Z,23.64
2022-09-07T12:36:47.416Z,23.70
2022-09-07T12:37:47.399Z,23.75
2022-09-07T12:38:47.392Z,23.76
2022-09-07T12:39:47.433Z,23.71
2022-09-07T12:40:47.372Z,23.71
2022-09-07T12:41:47.923Z,23.72
2022-09-07T12:42:47.340Z,23.71
2022-09-07T12:43:47.332Z,23.76
2022-09-07T12:44:47.317Z,23.75
2022-09-07T12:45:47.346Z,23.70
2022-09-07T12:46:47.377Z,23.72
2022-09-07T12:47:47.661Z,23.71
2022-09-07T12:48:47.271Z,23.79
2022-09-07T12:49:47.271Z,23.86
2022-09-07T12:50:47.251Z,23.86
2022-09-07T12:52:13.891Z,23.86
2022-09-07T12:52:47.242Z,23.76
2022-09-07T12:53:47.247Z,23.79
2022-09-07T12:54:55.793Z,23.71
2022-09-07T12:57:28.673Z,23.80
2022-09-07T12:57:47.189Z,23.75
2022-09-07T12:58:47.169Z,23.82
2022-09-07T12:59:47.177Z,23.86
2022-09-07T13:00:47.150Z,23.90
2022-09-07T13:01:47.215Z,24.01
2022-09-07T13:02:47.152Z,24.13
2022-09-07T13:03:51.623Z,24.17
2022-09-07T13:04:47.126Z,24.17
2022-09-07T13:05:47.113Z,24.17
2022-09-07T13:07:02.902Z,24.22
2022-09-07T13:07:47.098Z,24.35
2022-09-07T13:08:47.061Z,24.47
2022-09-07T13:09:47.053Z,24.47
2022-09-07T13:10:47.034Z,24.57
2022-09-07T13:11:47.051Z,24.68
2022-09-07T13:12:56.778Z,24.79
2022-09-07T13:14:04.483Z,24.95
2022-09-07T13:14:47.002Z,25.12
2022-09-07T13:15:47.635Z,25.31
2022-09-07T13:17:47.011Z,25.82
2022-09-07T13:18:46.952Z,26.05
2022-09-07T13:19:46.941Z,26.32
2022-09-07T13:20:46.933Z,26.54
2022-09-07T13:21:46.942Z,26.67
2022-09-07T13:22:46.924Z,26.94
2022-09-07T13:23:46.921Z,27.20
2022-09-07T13:24:47.589Z,27.38
2022-09-07T13:25:46.880Z,27.47
2022-09-07T13:26:50.657Z,27.71
2022-09-07T13:27:46.856Z,27.94
2022-09-07T13:28:47.549Z,27.88
2022-09-07T13:29:46.855Z,27.84
2022-09-07T13:30:46.895Z,27.57
2022-09-07T13:31:46.815Z,27.96